createdAt,value
2023-04-08T00:01:42.540Z,100.00
2023-04-08T00:04:32.977Z,100.00
2023-04-08T00:07:21.635Z,100.00
2023-04-08T00:10:10.848Z,100.00
2023-04-08T00:13:00.943Z,100.00
2023-04-08T00:15:49.467Z,100.00
2023-04-08T00:18:38.385Z,100.00
2023-04-08T00:21:28.297Z,100.00
2023-04-08T00:24:17.268Z,100.00
2023-04-08T00:27:05.739Z,100.00
2023-04-08T00:29:54.523Z,100.00
2023-04-08T00:32:43.014Z,100.00
2023-04-08T00:35:31.691Z,100.00
2023-04-08T00:38:21.619Z,100.00
2023-04-08T00:41:10.467Z,100.00
2023-04-08T00:43:59.031Z,100.00
2023-04-08T00:46:48.610Z,100.00
2023-04-08T00:49:37.138Z,100.00
2023-04-08T00:52:25.724Z,100.00
2023-04-08T00:55:15.821Z,100.00
2023-04-08T00:58:04.324Z,100.00
2023-04-08T01:01:01.961Z,100.00
2023-04-08T01:03:59.009Z,100.00
2023-04-08T01:06:51.432Z,100.00
2023-04-08T01:09:41.172Z,100.00
2023-04-08T01:12:33.638Z,100.00
2023-04-08T01:15:22.270Z,100.00
2023-04-08T01:18:13.543Z,100.00
2023-04-08T01:21:03.003Z,100.00
2023-04-08T01:23:58.147Z,100.00
2023-04-08T01:26:48.602Z,100.00
2023-04-08T01:29:37.814Z,100.00
2023-04-08T01:32:27.360Z,100.00
2023-04-08T01:35:16.486Z,100.00
2023-04-08T01:38:06.709Z,100.00
2023-04-08T01:40:55.877Z,100.00
2023-04-08T01:43:46.361Z,100.00
2023-04-08T01:46:35.283Z,100.00
2023-04-08T01:49:24.943Z,100.00
2023-04-08T01:52:14.026Z,100.00
2023-04-08T01:55:02.556Z,100.00
2023-04-08T01:57:53.026Z,100.00
2023-04-08T02:00:43.845Z,100.00
2023-04-08T02:03:32.837Z,100.00
2023-04-08T02:06:21.493Z,100.00
2023-04-08T02:09:10.043Z,100.00
2023-04-08T02:11:58.702Z,100.00
2023-04-08T02:14:47.319Z,100.00
2023-04-08T02:17:42.140Z,100.00
2023-04-08T02:20:33.724Z,100.00
2023-04-08T02:23:23.920Z,100.00
2023-04-08T02:26:15.030Z,100.00
2023-04-08T02:29:05.261Z,100.00
2023-04-08T02:31:54.420Z,100.00
2023-04-08T02:34:44.835Z,100.00
2023-04-08T02:37:33.481Z,100.00
2023-04-08T02:40:26.735Z,100.00
2023-04-08T02:43:15.295Z,100.00
2023-04-08T02:46:04.362Z,100.00
2023-04-08T02:48:53.147Z,100.00
2023-04-08T02:51:42.982Z,100.00
2023-04-08T02:54:31.566Z,100.00
2023-04-08T02:57:20.189Z,100.00
2023-04-08T03:00:10.117Z,100.00
2023-04-08T03:02:58.901Z,100.00
2023-04-08T03:05:47.562Z,100.00
2023-04-08T03:08:37.456Z,100.00
2023-04-08T03:11:26.668Z,100.00
2023-04-08T03:14:15.140Z,100.00
2023-04-08T03:17:03.739Z,100.00
2023-04-08T03:19:52.277Z,100.00
2023-04-08T03:22:40.810Z,100.00
2023-04-08T03:25:31.702Z,100.00
2023-04-08T03:28:25.235Z,100.00
2023-04-08T03:31:13.803Z,100.00
2023-04-08T03:34:02.423Z,100.00
2023-04-08T03:36:51.355Z,100.00
2023-04-08T03:39:40.081Z,100.00
2023-04-08T03:42:29.891Z,100.00
2023-04-08T03:45:18.366Z,100.00
2023-04-08T03:48:07.302Z,100.00
2023-04-08T03:50:55.912Z,100.00
2023-04-08T03:53:44.420Z,100.00
2023-04-08T03:56:32.959Z,100.00
2023-04-08T03:59:25.088Z,100.00
2023-04-08T04:02:13.732Z,100.00
2023-04-08T04:05:02.348Z,100.00
2023-04-08T04:07:50.859Z,100.00
2023-04-08T04:10:39.336Z,100.00
2023-04-08T04:13:27.904Z,100.00
2023-04-08T04:16:17.877Z,100.00
2023-04-08T04:19:06.654Z,100.00
2023-04-08T04:21:55.219Z,100.00
2023-04-08T04:24:48.329Z,100.00
2023-04-08T04:27:37.707Z,100.00
2023-04-08T04:30:27.192Z,100.00
2023-04-08T04:33:17.100Z,100.00
2023-04-08T04:36:05.791Z,100.00
2023-04-08T04:38:54.484Z,100.00
2023-04-08T04:41:44.266Z,100.00
2023-04-08T04:44:32.715Z,100.00
2023-04-08T04:47:21.197Z,100.00
2023-04-08T04:50:11.819Z,100.00
2023-04-08T04:53:00.300Z,100.00
2023-04-08T04:55:48.791Z,100.00
2023-04-08T04:58:37.304Z,100.00
2023-04-08T05:01:26.148Z,100.00
2023-04-08T05:04:14.679Z,100.00
2023-04-08T05:07:04.658Z,100.00
2023-04-08T05:09:53.223Z,100.00
2023-04-08T05:12:42.074Z,100.00
2023-04-08T05:15:30.630Z,100.00
2023-04-08T05:18:19.653Z,100.00
2023-04-08T05:21:08.128Z,100.00
2023-04-08T05:23:57.916Z,100.00
2023-04-08T05:26:47.809Z,100.00
2023-04-08T05:29:36.268Z,100.00
2023-04-08T05:32:24.820Z,100.00
2023-04-08T05:35:13.316Z,100.00
2023-04-08T05:38:01.802Z,100.00
2023-04-08T05:40:51.694Z,100.00
2023-04-08T05:43:40.390Z,100.00
2023-04-08T05:46:29.003Z,100.00
2023-04-08T05:49:18.230Z,100.00
2023-04-08T05:52:06.966Z,100.00
2023-04-08T05:54:55.547Z,100.00
2023-04-08T05:57:45.445Z,100.00
2023-04-08T06:00:34.183Z,100.00
2023-04-08T06:03:23.050Z,100.00
2023-04-08T06:06:12.647Z,100.00
2023-04-08T06:09:01.190Z,100.00
2023-04-08T06:11:50.735Z,100.00
2023-04-08T06:14:41.043Z,100.00
2023-04-08T06:17:29.646Z,100.00
2023-04-08T06:20:18.248Z,100.00
2023-04-08T06:23:07.153Z,100.00
2023-04-08T06:25:55.711Z,100.00
2023-04-08T06:28:44.160Z,100.00
2023-04-08T06:31:34.153Z,100.00
2023-04-08T06:34:22.682Z,100.00
2023-04-08T06:37:11.421Z,100.00
2023-04-08T06:39:59.919Z,100.00
2023-04-08T06:42:48.525Z,100.00
2023-04-08T06:45:37.076Z,100.00
2023-04-08T06:48:28.613Z,100.00
2023-04-08T06:51:17.079Z,100.00
2023-04-08T06:54:05.754Z,100.00
2023-04-08T06:56:54.254Z,100.00
2023-04-08T06:59:42.746Z,100.00
2023-04-08T07:02:31.323Z,99.11
2023-04-08T07:05:21.453Z,98.17
2023-04-08T07:08:10.579Z,97.80
2023-04-08T07:10:59.099Z,98.49
2023-04-08T07:13:47.638Z,97.50
2023-04-08T07:16:36.204Z,96.83
2023-04-08T07:19:24.846Z,96.75
2023-04-08T07:22:14.743Z,95.37
2023-04-08T07:25:03.269Z,95.99
2023-04-08T07:27:52.955Z,95.54
2023-04-08T07:30:41.513Z,93.35
2023-04-08T07:33:30.064Z,94.70
2023-04-08T07:36:18.676Z,91.52
2023-04-08T07:39:08.569Z,93.32
2023-04-08T07:41:57.320Z,88.97
2023-04-08T07:44:46.617Z,86.78
2023-04-08T07:47:35.676Z,86.39
2023-04-08T07:50:24.273Z,85.80
2023-04-08T07:53:13.669Z,86.73
2023-04-08T07:56:04.485Z,86.44
2023-04-08T07:58:54.388Z,85.29
2023-04-08T08:01:43.169Z,84.21
2023-04-08T08:04:32.735Z,84.28
2023-04-08T08:07:21.372Z,85.37
2023-04-08T08:10:10.996Z,84.27
2023-04-08T08:13:00.982Z,83.44
2023-04-08T08:15:53.655Z,83.38
2023-04-08T08:18:42.470Z,83.29
2023-04-08T08:21:31.289Z,83.50
2023-04-08T08:24:19.831Z,82.96
2023-04-08T08:27:08.604Z,80.24
2023-04-08T08:29:58.426Z,78.80
2023-04-08T08:32:47.304Z,77.24
2023-04-08T08:35:35.995Z,72.79
2023-04-08T08:38:24.734Z,71.51
2023-04-08T08:41:13.305Z,71.53
2023-04-08T08:44:01.812Z,69.82
2023-04-08T08:46:52.206Z,70.65
2023-04-08T08:49:41.551Z,69.44
2023-04-08T08:52:30.481Z,68.36
2023-04-08T08:55:35.014Z,67.58
2023-04-08T08:58:28.791Z,66.34
2023-04-08T09:01:37.407Z,66.43
2023-04-08T09:04:27.621Z,67.50
2023-04-08T09:07:16.202Z,67.96
2023-04-08T09:10:05.436Z,67.38
2023-04-08T09:12:57.604Z,67.84
2023-04-08T09:16:05.006Z,64.15
2023-04-08T09:18:53.641Z,65.26
2023-04-08T09:21:43.877Z,64.21
2023-04-08T09:24:32.407Z,63.55
2023-04-08T09:27:34.877Z,64.76
2023-04-08T09:30:24.873Z,64.96
2023-04-08T09:33:13.434Z,63.09
2023-04-08T09:36:02.186Z,61.14
2023-04-08T09:38:52.648Z,62.21
2023-04-08T09:41:41.526Z,61.34
2023-04-08T09:44:31.216Z,61.49
2023-04-08T09:47:21.318Z,62.63
2023-04-08T09:50:10.787Z,62.75
2023-04-08T09:53:02.794Z,62.52
2023-04-08T09:55:54.901Z,61.06
2023-04-08T09:58:48.930Z,58.88
2023-04-08T10:01:40.162Z,61.13
2023-04-08T10:04:30.191Z,60.52
2023-04-08T10:07:19.243Z,58.15
2023-04-08T10:10:10.935Z,59.81
2023-04-08T10:13:01.029Z,60.32
2023-04-08T10:15:49.568Z,59.47
2023-04-08T10:18:38.308Z,59.21
2023-04-08T10:21:37.025Z,57.40
2023-04-08T10:24:25.944Z,55.24
2023-04-08T10:27:40.827Z,52.57
2023-04-08T10:30:43.843Z,53.78
2023-04-08T10:33:38.615Z,53.96
2023-04-08T10:36:28.816Z,53.66
2023-04-08T10:39:17.936Z,54.40
2023-04-08T10:42:09.506Z,53.38
2023-04-08T10:45:01.849Z,50.14
2023-04-08T10:47:51.826Z,51.44
2023-04-08T10:50:40.883Z,54.03
2023-04-08T10:53:30.460Z,53.05
2023-04-08T10:56:19.619Z,49.85
2023-04-08T10:59:08.657Z,50.52
2023-04-08T11:01:58.285Z,52.60
2023-04-08T11:04:48.381Z,54.33
2023-04-08T11:07:41.489Z,53.30
2023-04-08T11:10:30.097Z,53.21
2023-04-08T11:13:18.820Z,51.92
2023-04-08T11:16:17.793Z,52.42
2023-04-08T11:19:07.815Z,52.82
2023-04-08T11:21:57.712Z,53.61
2023-04-08T11:24:46.409Z,53.89
2023-04-08T11:27:38.220Z,54.57
2023-04-08T11:30:26.749Z,54.41
2023-04-08T11:33:15.270Z,55.15
2023-04-08T11:36:04.734Z,54.51
2023-04-08T11:38:56.402Z,53.93
2023-04-08T11:41:44.937Z,51.87
2023-04-08T11:44:33.734Z,50.14
2023-04-08T11:47:22.321Z,50.87
2023-04-08T11:50:11.480Z,51.58
2023-04-08T11:53:00.308Z,50.03
2023-04-08T11:55:50.368Z,48.57
2023-04-08T11:58:39.142Z,47.32
2023-04-08T12:01:28.125Z,48.18
2023-04-08T12:04:16.809Z,48.87
2023-04-08T12:07:05.609Z,48.78
2023-04-08T12:09:54.653Z,48.46
2023-04-08T12:12:44.540Z,50.47
2023-04-08T12:15:33.060Z,49.98
2023-04-08T12:18:21.726Z,51.00
2023-04-08T12:21:10.366Z,50.45
2023-04-08T12:23:59.063Z,48.59
2023-04-08T12:26:47.649Z,49.84
2023-04-08T12:29:37.589Z,50.66
2023-04-08T12:32:26.267Z,50.70
2023-04-08T12:35:15.046Z,50.06
2023-04-08T12:38:03.639Z,50.10
2023-04-08T12:40:52.253Z,50.64
2023-04-08T12:43:40.758Z,51.40
2023-04-08T12:46:30.708Z,50.73
2023-04-08T12:49:19.318Z,50.86
2023-04-08T12:52:08.538Z,49.95
2023-04-08T12:54:57.064Z,51.68
2023-04-08T12:57:45.660Z,51.30
2023-04-08T13:00:34.309Z,50.69
2023-04-08T13:03:24.261Z,50.81
2023-04-08T13:06:12.856Z,50.70
2023-04-08T13:09:01.420Z,50.48
2023-04-08T13:11:50.287Z,49.11
2023-04-08T13:14:38.911Z,50.05
2023-04-08T13:17:27.771Z,50.57
2023-04-08T13:20:17.811Z,50.55
2023-04-08T13:23:06.557Z,49.62
2023-04-08T13:25:55.369Z,50.17
2023-04-08T13:28:56.625Z,47.29
2023-04-08T13:31:46.077Z,47.57
2023-04-08T13:34:34.671Z,47.58
2023-04-08T13:37:24.726Z,47.36
2023-04-08T13:40:13.443Z,47.32
2023-04-08T13:43:02.334Z,46.80
2023-04-08T13:45:50.956Z,46.57
2023-04-08T13:48:39.549Z,46.57
2023-04-08T13:51:28.116Z,46.52
2023-04-08T13:54:17.993Z,47.05
2023-04-08T13:57:06.630Z,48.26
2023-04-08T13:59:55.385Z,48.21
2023-04-08T14:02:44.016Z,46.82
2023-04-08T14:05:32.871Z,47.29
2023-04-08T14:08:25.382Z,47.61
2023-04-08T14:11:15.704Z,47.24
2023-04-08T14:14:04.237Z,48.59
2023-04-08T14:16:52.797Z,48.91
2023-04-08T14:19:41.908Z,48.91
2023-04-08T14:22:30.433Z,50.82
2023-04-08T14:25:19.039Z,52.05
2023-04-08T14:28:08.998Z,51.05
2023-04-08T14:30:57.516Z,51.58
2023-04-08T14:33:46.018Z,51.48
2023-04-08T14:36:34.830Z,51.99
2023-04-08T14:39:23.359Z,50.86
2023-04-08T14:42:12.102Z,50.42
2023-04-08T14:45:02.312Z,50.29
2023-04-08T14:47:50.941Z,49.75
2023-04-08T14:50:39.597Z,50.62
2023-04-08T14:53:28.209Z,52.00
2023-04-08T14:56:16.744Z,52.31
2023-04-08T14:59:05.945Z,52.70
2023-04-08T15:01:55.981Z,52.66
2023-04-08T15:04:44.510Z,52.90
2023-04-08T15:07:33.067Z,53.01
2023-04-08T15:10:21.730Z,53.38
2023-04-08T15:13:10.409Z,52.16
2023-04-08T15:15:58.944Z,52.61
2023-04-08T15:18:48.876Z,52.87
2023-04-08T15:21:37.394Z,52.78
2023-04-08T15:24:25.918Z,52.71
2023-04-08T15:27:14.651Z,53.05
2023-04-08T15:30:03.419Z,53.48
2023-04-08T15:32:52.444Z,53.81
2023-04-08T15:35:46.555Z,54.36
2023-04-08T15:38:35.145Z,54.23
2023-04-08T15:41:23.667Z,53.79
2023-04-08T15:44:12.289Z,54.66
2023-04-08T15:47:00.923Z,54.38
2023-04-08T15:49:49.856Z,54.34
2023-04-08T15:52:39.713Z,54.91
2023-04-08T15:55:28.258Z,54.78
2023-04-08T15:58:17.060Z,54.79
2023-04-08T16:01:05.878Z,54.92
2023-04-08T16:03:54.508Z,55.26
2023-04-08T16:06:44.184Z,54.61
2023-04-08T16:09:34.862Z,55.26
2023-04-08T16:12:25.394Z,54.82
2023-04-08T16:15:13.973Z,55.10
2023-04-08T16:18:03.279Z,55.55
2023-04-08T16:20:51.809Z,55.90
2023-04-08T16:23:40.293Z,56.21
2023-04-08T16:26:30.165Z,55.24
2023-04-08T16:29:18.713Z,55.32
2023-04-08T16:32:07.342Z,53.67
2023-04-08T16:34:55.876Z,53.51
2023-04-08T16:37:44.397Z,54.00
2023-04-08T16:40:33.934Z,54.23
2023-04-08T16:43:24.696Z,54.10
2023-04-08T16:46:13.671Z,54.69
2023-04-08T16:49:02.317Z,54.18
2023-04-08T16:51:50.906Z,54.64
2023-04-08T16:54:39.420Z,54.27
2023-04-08T16:57:28.298Z,54.44
2023-04-08T17:00:20.580Z,54.91
2023-04-08T17:03:10.716Z,54.83
2023-04-08T17:06:07.097Z,54.94
2023-04-08T17:08:56.050Z,55.20
2023-04-08T17:11:44.637Z,55.63
2023-04-08T17:14:34.225Z,55.73
2023-04-08T17:17:24.388Z,57.13
2023-04-08T17:20:13.433Z,57.43
2023-04-08T17:23:02.135Z,58.94
2023-04-08T17:25:50.749Z,59.60
2023-04-08T17:28:39.353Z,58.32
2023-04-08T17:31:28.222Z,59.18
2023-04-08T17:34:18.208Z,60.08
2023-04-08T17:37:07.012Z,60.88
2023-04-08T17:39:55.663Z,61.26
2023-04-08T17:42:44.250Z,61.39
2023-04-08T17:45:32.754Z,61.70
2023-04-08T17:48:21.309Z,61.37
2023-04-08T17:51:11.800Z,61.59
2023-04-08T17:54:00.322Z,61.38
2023-04-08T17:56:49.617Z,61.38
2023-04-08T17:59:38.252Z,61.06
2023-04-08T18:02:29.084Z,61.14
2023-04-08T18:05:17.679Z,61.78
2023-04-08T18:08:07.636Z,62.26
2023-04-08T18:10:57.243Z,62.59
2023-04-08T18:13:46.028Z,62.25
2023-04-08T18:16:34.551Z,62.54
2023-04-08T18:19:24.632Z,62.83
2023-04-08T18:22:13.301Z,63.53
2023-04-08T18:25:03.231Z,63.06
2023-04-08T18:27:51.750Z,63.13
2023-04-08T18:30:40.354Z,63.05
2023-04-08T18:33:29.380Z,63.66
2023-04-08T18:36:18.489Z,63.55
2023-04-08T18:39:07.207Z,63.82
2023-04-08T18:41:57.384Z,64.51
2023-04-08T18:44:46.041Z,65.13
2023-04-08T18:47:34.626Z,64.69
2023-04-08T18:50:23.222Z,64.55
2023-04-08T18:53:12.341Z,65.19
2023-04-08T18:56:00.966Z,64.94
2023-04-08T18:58:54.435Z,65.59
2023-04-08T19:01:43.225Z,66.11
2023-04-08T19:04:31.845Z,65.88
2023-04-08T19:07:20.451Z,66.42
2023-04-08T19:10:09.784Z,67.22
2023-04-08T19:12:58.521Z,67.09
2023-04-08T19:15:48.493Z,66.23
2023-04-08T19:18:36.979Z,65.55
2023-04-08T19:21:25.545Z,65.81
2023-04-08T19:24:14.165Z,65.76
2023-04-08T19:27:02.749Z,65.87
2023-04-08T19:29:51.264Z,66.11
2023-04-08T19:32:42.771Z,65.86
2023-04-08T19:35:31.362Z,66.66
2023-04-08T19:38:19.978Z,66.93
2023-04-08T19:41:08.687Z,65.94
2023-04-08T19:43:57.296Z,66.19
2023-04-08T19:46:46.082Z,66.49
2023-04-08T19:49:36.109Z,66.45
2023-04-08T19:52:24.876Z,66.61
2023-04-08T19:55:13.432Z,66.48
2023-04-08T19:58:02.257Z,67.09
2023-04-08T20:00:51.034Z,67.29
2023-04-08T20:03:39.627Z,67.85
2023-04-08T20:06:29.592Z,68.17
2023-04-08T20:09:18.129Z,68.64
2023-04-08T20:12:06.825Z,68.94
2023-04-08T20:14:55.644Z,69.19
2023-04-08T20:17:44.237Z,69.76
2023-04-08T20:20:32.791Z,70.16
2023-04-08T20:23:24.131Z,69.91
2023-04-08T20:26:13.273Z,70.24
2023-04-08T20:29:01.911Z,70.21
2023-04-08T20:31:51.521Z,70.32
2023-04-08T20:34:41.521Z,70.16
2023-04-08T20:37:30.020Z,70.77
2023-04-08T20:40:20.330Z,70.92
2023-04-08T20:43:08.849Z,71.48
2023-04-08T20:45:57.420Z,71.77
2023-04-08T20:48:47.136Z,71.49
2023-04-08T20:51:35.715Z,71.31
2023-04-08T20:54:25.201Z,71.69
2023-04-08T20:57:15.531Z,71.56
2023-04-08T21:00:05.744Z,71.84
2023-04-08T21:02:54.366Z,72.03
2023-04-08T21:05:43.047Z,71.96
2023-04-08T21:08:31.960Z,72.17
2023-04-08T21:11:21.056Z,71.81
2023-04-08T21:14:10.896Z,71.55
2023-04-08T21:16:59.555Z,72.30
2023-04-08T21:19:48.127Z,72.32
2023-04-08T21:22:36.691Z,73.12
2023-04-08T21:25:26.559Z,73.34
2023-04-08T21:28:15.409Z,73.32
2023-04-08T21:31:10.538Z,74.07
2023-04-08T21:33:59.310Z,74.12
2023-04-08T21:36:47.866Z,73.90
2023-04-08T21:39:36.479Z,73.76
2023-04-08T21:42:26.199Z,73.94
2023-04-08T21:45:15.423Z,74.21
2023-04-08T21:48:05.624Z,74.29
2023-04-08T21:50:54.181Z,75.37
2023-04-08T21:53:42.677Z,75.67
2023-04-08T21:56:31.178Z,73.58
2023-04-08T21:59:20.015Z,73.44
2023-04-08T22:02:11.235Z,73.49
2023-04-08T22:05:01.559Z,74.05
2023-04-08T22:07:50.976Z,74.28
2023-04-08T22:10:39.581Z,74.50
2023-04-08T22:13:28.164Z,74.97
2023-04-08T22:16:16.687Z,74.94
2023-04-08T22:19:07.448Z,75.32
2023-04-08T22:21:57.337Z,75.82
2023-04-08T22:24:45.901Z,75.47
2023-04-08T22:27:34.424Z,75.26
2023-04-08T22:30:23.112Z,75.17
2023-04-08T22:33:11.804Z,74.70
2023-04-08T22:36:00.468Z,74.62
2023-04-08T22:38:50.764Z,74.59
2023-04-08T22:41:39.568Z,74.79
2023-04-08T22:44:28.023Z,74.64
2023-04-08T22:47:18.199Z,75.34
2023-04-08T22:50:07.811Z,75.50
2023-04-08T22:52:56.329Z,75.71
2023-04-08T22:55:46.411Z,75.79
2023-04-08T22:58:34.901Z,75.66
2023-04-08T23:01:23.661Z,75.31
2023-04-08T23:04:12.263Z,75.34
2023-04-08T23:07:01.140Z,75.04
2023-04-08T23:09:49.746Z,75.74
2023-04-08T23:12:39.628Z,75.24
2023-04-08T23:15:28.177Z,74.94
2023-04-08T23:18:16.704Z,74.66
2023-04-08T23:21:05.579Z,75.04
2023-04-08T23:23:54.116Z,74.84
2023-04-08T23:26:42.653Z,75.39
2023-04-08T23:29:32.539Z,75.46
2023-04-08T23:32:21.199Z,75.42
2023-04-08T23:35:09.955Z,75.89
2023-04-08T23:37:58.502Z,76.17
2023-04-08T23:40:47.040Z,76.33
2023-04-08T23:43:36.113Z,76.53
2023-04-08T23:46:26.103Z,77.19
2023-04-08T23:49:14.690Z,77.94
2023-04-08T23:52:03.243Z,77.64
2023-04-08T23:54:51.814Z,78.12
2023-04-08T23:57:42.880Z,78.05
